sensor_id;sensor_type;location;lat;lon;timestamp;temperature;humidity
26212;DHT22;13951;49.516;6.094;2023-04-03T00:01:22;4.60;99.90
26212;DHT22;13951;49.516;6.094;2023-04-03T00:03:55;4.60;99.90
26212;DHT22;13951;49.516;6.094;2023-04-03T00:06:28;4.70;99.90
26212;DHT22;13951;49.516;6.094;2023-04-03T00:09:01;4.70;99.90
26212;DHT22;13951;49.516;6.094;2023-04-03T00:11:34;4.60;99.90
26212;DHT22;13951;49.516;6.094;2023-04-03T00:14:06;4.60;99.90
26212;DHT22;13951;49.516;6.094;2023-04-03T00:16:39;4.60;99.90
26212;DHT22;13951;49.516;6.094;2023-04-03T00:19:12;4.60;99.90
26212;DHT22;13951;49.516;6.094;2023-04-03T00:21:45;4.60;99.90
26212;DHT22;13951;49.516;6.094;2023-04-03T00:24:18;4.60;99.90
26212;DHT22;13951;49.516;6.094;2023-04-03T00:26:51;4.50;99.90
26212;DHT22;13951;49.516;6.094;2023-04-03T00:29:24;4.60;99.90
26212;DHT22;13951;49.516;6.094;2023-04-03T00:31:57;4.50;99.90
26212;DHT22;13951;49.516;6.094;2023-04-03T00:34:30;4.50;99.90
26212;DHT22;13951;49.516;6.094;2023-04-03T00:37:03;4.50;99.90
26212;DHT22;13951;49.516;6.094;2023-04-03T00:39:36;4.50;99.90
26212;DHT22;13951;49.516;6.094;2023-04-03T00:42:09;4.50;99.90
26212;DHT22;13951;49.516;6.094;2023-04-03T00:47:16;4.50;99.90
26212;DHT22;13951;49.516;6.094;2023-04-03T00:49:50;4.60;99.90
26212;DHT22;13951;49.516;6.094;2023-04-03T00:52:28;4.60;99.90
26212;DHT22;13951;49.516;6.094;2023-04-03T00:55:04;4.50;99.90
26212;DHT22;13951;49.516;6.094;2023-04-03T00:57:38;4.50;99.90
26212;DHT22;13951;49.516;6.094;2023-04-03T01:00:14;4.50;99.90
26212;DHT22;13951;49.516;6.094;2023-04-03T01:02:51;4.50;99.90
26212;DHT22;13951;49.516;6.094;2023-04-03T01:05:24;4.50;99.90
26212;DHT22;13951;49.516;6.094;2023-04-03T01:07:56;4.40;99.90
26212;DHT22;13951;49.516;6.094;2023-04-03T01:10:30;4.30;99.90
26212;DHT22;13951;49.516;6.094;2023-04-03T01:13:25;4.30;99.90
26212;DHT22;13951;49.516;6.094;2023-04-03T01:16:05;4.30;99.90
26212;DHT22;13951;49.516;6.094;2023-04-03T01:18:39;4.20;99.90
26212;DHT22;13951;49.516;6.094;2023-04-03T01:26:44;4.20;99.90
26212;DHT22;13951;49.516;6.094;2023-04-03T01:29:18;4.20;99.90
26212;DHT22;13951;49.516;6.094;2023-04-03T01:31:57;4.20;99.90
26212;DHT22;13951;49.516;6.094;2023-04-03T01:34:30;4.20;99.90
26212;DHT22;13951;49.516;6.094;2023-04-03T01:37:04;4.20;99.90
26212;DHT22;13951;49.516;6.094;2023-04-03T01:39:37;4.30;99.90
26212;DHT22;13951;49.516;6.094;2023-04-03T01:42:10;4.30;99.90
26212;DHT22;13951;49.516;6.094;2023-04-03T01:44:47;4.30;99.90
26212;DHT22;13951;49.516;6.094;2023-04-03T01:47:20;4.30;99.90
26212;DHT22;13951;49.516;6.094;2023-04-03T01:49:53;4.30;99.90
26212;DHT22;13951;49.516;6.094;2023-04-03T01:52:26;4.30;99.90
26212;DHT22;13951;49.516;6.094;2023-04-03T01:54:59;4.20;99.90
26212;DHT22;13951;49.516;6.094;2023-04-03T01:57:32;4.30;99.90
26212;DHT22;13951;49.516;6.094;2023-04-03T02:00:05;4.30;99.90
26212;DHT22;13951;49.516;6.094;2023-04-03T02:02:44;4.20;99.90
26212;DHT22;13951;49.516;6.094;2023-04-03T02:05:19;4.30;99.90
26212;DHT22;13951;49.516;6.094;2023-04-03T02:07:52;4.30;99.90
26212;DHT22;13951;49.516;6.094;2023-04-03T02:10:25;4.20;99.90
26212;DHT22;13951;49.516;6.094;2023-04-03T02:12:58;4.20;99.90
26212;DHT22;13951;49.516;6.094;2023-04-03T02:15:30;4.20;99.90
26212;DHT22;13951;49.516;6.094;2023-04-03T02:18:03;4.20;99.90
26212;DHT22;13951;49.516;6.094;2023-04-03T02:20:39;4.20;99.90
26212;DHT22;13951;49.516;6.094;2023-04-03T02:23:12;4.20;99.90
26212;DHT22;13951;49.516;6.094;2023-04-03T02:25:45;4.10;99.90
26212;DHT22;13951;49.516;6.094;2023-04-03T02:28:17;4.10;99.90
26212;DHT22;13951;49.516;6.094;2023-04-03T02:30:50;4.00;99.90
26212;DHT22;13951;49.516;6.094;2023-04-03T02:33:23;4.00;99.90
26212;DHT22;13951;49.516;6.094;2023-04-03T02:35:57;4.00;99.90
26212;DHT22;13951;49.516;6.094;2023-04-03T02:38:30;3.90;99.90
26212;DHT22;13951;49.516;6.094;2023-04-03T02:41:06;3.90;99.90
26212;DHT22;13951;49.516;6.094;2023-04-03T02:43:39;3.90;99.90
26212;DHT22;13951;49.516;6.094;2023-04-03T02:46:12;3.90;99.90
26212;DHT22;13951;49.516;6.094;2023-04-03T02:48:47;3.80;99.90
26212;DHT22;13951;49.516;6.094;2023-04-03T02:51:21;3.80;99.90
26212;DHT22;13951;49.516;6.094;2023-04-03T02:53:53;3.90;99.90
26212;DHT22;13951;49.516;6.094;2023-04-03T02:56:31;3.90;99.90
26212;DHT22;13951;49.516;6.094;2023-04-03T02:59:04;3.90;99.90
26212;DHT22;13951;49.516;6.094;2023-04-03T03:01:39;3.90;99.90
26212;DHT22;13951;49.516;6.094;2023-04-03T03:04:12;3.90;99.90
26212;DHT22;13951;49.516;6.094;2023-04-03T03:06:45;3.80;99.90
26212;DHT22;13951;49.516;6.094;2023-04-03T03:09:19;3.80;99.90
26212;DHT22;13951;49.516;6.094;2023-04-03T03:11:52;3.70;99.90
26212;DHT22;13951;49.516;6.094;2023-04-03T03:14:25;3.70;99.90
26212;DHT22;13951;49.516;6.094;2023-04-03T03:16:58;3.70;99.90
26212;DHT22;13951;49.516;6.094;2023-04-03T03:19:31;3.90;99.90
26212;DHT22;13951;49.516;6.094;2023-04-03T03:22:04;3.90;99.90
26212;DHT22;13951;49.516;6.094;2023-04-03T03:24:37;3.50;99.90
26212;DHT22;13951;49.516;6.094;2023-04-03T03:27:10;3.80;99.90
26212;DHT22;13951;49.516;6.094;2023-04-03T03:29:42;3.60;99.90
26212;DHT22;13951;49.516;6.094;2023-04-03T03:32:16;3.60;99.90
26212;DHT22;13951;49.516;6.094;2023-04-03T03:34:48;3.70;99.90
26212;DHT22;13951;49.516;6.094;2023-04-03T03:37:21;3.60;99.90
26212;DHT22;13951;49.516;6.094;2023-04-03T03:39:54;3.60;99.90
26212;DHT22;13951;49.516;6.094;2023-04-03T03:42:27;3.60;99.90
26212;DHT22;13951;49.516;6.094;2023-04-03T03:45:00;3.50;99.90
26212;DHT22;13951;49.516;6.094;2023-04-03T03:47:32;3.50;99.90
26212;DHT22;13951;49.516;6.094;2023-04-03T03:50:06;3.40;99.90
26212;DHT22;13951;49.516;6.094;2023-04-03T03:52:39;3.40;99.90
26212;DHT22;13951;49.516;6.094;2023-04-03T03:55:12;3.40;99.90
26212;DHT22;13951;49.516;6.094;2023-04-03T03:57:45;3.40;99.90
26212;DHT22;13951;49.516;6.094;2023-04-03T04:00:19;3.40;99.90
26212;DHT22;13951;49.516;6.094;2023-04-03T04:02:57;3.30;99.90
26212;DHT22;13951;49.516;6.094;2023-04-03T04:05:32;3.30;99.90
26212;DHT22;13951;49.516;6.094;2023-04-03T04:08:06;3.20;99.90
26212;DHT22;13951;49.516;6.094;2023-04-03T04:10:39;3.20;99.90
26212;DHT22;13951;49.516;6.094;2023-04-03T04:13:13;3.20;99.90
26212;DHT22;13951;49.516;6.094;2023-04-03T04:15:46;3.20;99.90
26212;DHT22;13951;49.516;6.094;2023-04-03T04:18:21;3.20;99.90
26212;DHT22;13951;49.516;6.094;2023-04-03T04:20:55;3.20;99.90
26212;DHT22;13951;49.516;6.094;2023-04-03T04:23:28;3.20;99.90
26212;DHT22;13951;49.516;6.094;2023-04-03T04:26:02;3.20;99.90
26212;DHT22;13951;49.516;6.094;2023-04-03T04:28:40;3.20;99.90
26212;DHT22;13951;49.516;6.094;2023-04-03T04:31:13;3.20;99.90
26212;DHT22;13951;49.516;6.094;2023-04-03T04:33:46;3.20;99.90
26212;DHT22;13951;49.516;6.094;2023-04-03T04:36:20;3.20;99.90
26212;DHT22;13951;49.516;6.094;2023-04-03T04:38:54;3.20;99.90
26212;DHT22;13951;49.516;6.094;2023-04-03T04:41:29;3.20;99.90
26212;DHT22;13951;49.516;6.094;2023-04-03T04:44:02;3.20;99.90
26212;DHT22;13951;49.516;6.094;2023-04-03T04:46:36;3.20;99.90
26212;DHT22;13951;49.516;6.094;2023-04-03T04:49:10;3.10;99.90
26212;DHT22;13951;49.516;6.094;2023-04-03T04:51:46;3.10;99.90
26212;DHT22;13951;49.516;6.094;2023-04-03T04:54:49;3.10;99.90
26212;DHT22;13951;49.516;6.094;2023-04-03T04:57:22;3.10;99.90
26212;DHT22;13951;49.516;6.094;2023-04-03T04:59:55;3.10;99.90
26212;DHT22;13951;49.516;6.094;2023-04-03T05:02:28;3.20;99.90
26212;DHT22;13951;49.516;6.094;2023-04-03T05:05:01;3.20;99.90
26212;DHT22;13951;49.516;6.094;2023-04-03T05:07:37;3.20;99.90
26212;DHT22;13951;49.516;6.094;2023-04-03T05:10:10;3.20;99.90
26212;DHT22;13951;49.516;6.094;2023-04-03T05:12:44;3.20;99.90
26212;DHT22;13951;49.516;6.094;2023-04-03T05:15:17;3.10;99.90
26212;DHT22;13951;49.516;6.094;2023-04-03T05:17:51;3.10;99.90
26212;DHT22;13951;49.516;6.094;2023-04-03T05:20:24;3.10;99.90
26212;DHT22;13951;49.516;6.094;2023-04-03T05:22:57;3.10;99.90
26212;DHT22;13951;49.516;6.094;2023-04-03T05:25:30;3.00;99.90
26212;DHT22;13951;49.516;6.094;2023-04-03T05:28:04;3.00;99.90
26212;DHT22;13951;49.516;6.094;2023-04-03T05:30:37;3.10;99.90
26212;DHT22;13951;49.516;6.094;2023-04-03T05:33:10;3.10;99.90
26212;DHT22;13951;49.516;6.094;2023-04-03T05:35:53;3.10;99.90
26212;DHT22;13951;49.516;6.094;2023-04-03T05:38:31;3.10;99.90
26212;DHT22;13951;49.516;6.094;2023-04-03T05:41:04;3.10;99.90
26212;DHT22;13951;49.516;6.094;2023-04-03T05:43:37;3.20;99.90
26212;DHT22;13951;49.516;6.094;2023-04-03T05:46:15;3.20;99.90
26212;DHT22;13951;49.516;6.094;2023-04-03T05:48:51;3.20;99.90
26212;DHT22;13951;49.516;6.094;2023-04-03T05:51:34;3.30;99.90
26212;DHT22;13951;49.516;6.094;2023-04-03T05:54:19;3.30;99.90
26212;DHT22;13951;49.516;6.094;2023-04-03T05:56:53;3.40;99.90
26212;DHT22;13951;49.516;6.094;2023-04-03T05:59:27;3.40;99.90
26212;DHT22;13951;49.516;6.094;2023-04-03T06:02:03;3.40;99.90
26212;DHT22;13951;49.516;6.094;2023-04-03T06:04:35;3.40;99.90
26212;DHT22;13951;49.516;6.094;2023-04-03T06:07:15;3.40;99.90
26212;DHT22;13951;49.516;6.094;2023-04-03T06:09:50;3.50;99.90
26212;DHT22;13951;49.516;6.094;2023-04-03T06:12:24;3.50;99.90
26212;DHT22;13951;49.516;6.094;2023-04-03T06:14:57;3.60;99.90
26212;DHT22;13951;49.516;6.094;2023-04-03T06:17:30;3.60;99.90
26212;DHT22;13951;49.516;6.094;2023-04-03T06:20:04;3.60;99.90
26212;DHT22;13951;49.516;6.094;2023-04-03T06:22:37;3.60;99.90
26212;DHT22;13951;49.516;6.094;2023-04-03T06:25:10;3.60;99.90
26212;DHT22;13951;49.516;6.094;2023-04-03T06:27:43;3.70;99.90
26212;DHT22;13951;49.516;6.094;2023-04-03T06:30:16;3.80;99.90
26212;DHT22;13951;49.516;6.094;2023-04-03T06:32:49;3.90;99.90
26212;DHT22;13951;49.516;6.094;2023-04-03T06:35:21;3.90;99.90
26212;DHT22;13951;49.516;6.094;2023-04-03T06:37:56;4.10;99.90
26212;DHT22;13951;49.516;6.094;2023-04-03T06:40:29;4.20;99.90
26212;DHT22;13951;49.516;6.094;2023-04-03T06:43:02;4.40;99.90
26212;DHT22;13951;49.516;6.094;2023-04-03T06:45:35;4.50;99.90
26212;DHT22;13951;49.516;6.094;2023-04-03T06:48:09;4.60;99.90
26212;DHT22;13951;49.516;6.094;2023-04-03T06:50:42;4.70;99.90
26212;DHT22;13951;49.516;6.094;2023-04-03T06:53:14;4.90;99.90
26212;DHT22;13951;49.516;6.094;2023-04-03T06:55:48;5.00;99.90
26212;DHT22;13951;49.516;6.094;2023-04-03T06:58:20;5.10;99.90
26212;DHT22;13951;49.516;6.094;2023-04-03T07:00:55;5.30;99.90
26212;DHT22;13951;49.516;6.094;2023-04-03T07:03:28;5.30;99.90
26212;DHT22;13951;49.516;6.094;2023-04-03T07:06:01;5.30;99.90
26212;DHT22;13951;49.516;6.094;2023-04-03T07:08:34;5.40;99.90
26212;DHT22;13951;49.516;6.094;2023-04-03T07:11:09;5.40;99.90
26212;DHT22;13951;49.516;6.094;2023-04-03T07:13:42;5.40;99.90
26212;DHT22;13951;49.516;6.094;2023-04-03T07:16:15;5.60;99.90
26212;DHT22;13951;49.516;6.094;2023-04-03T07:18:48;5.60;99.90
26212;DHT22;13951;49.516;6.094;2023-04-03T07:21:21;5.60;99.90
26212;DHT22;13951;49.516;6.094;2023-04-03T07:23:54;5.60;99.90
26212;DHT22;13951;49.516;6.094;2023-04-03T07:26:27;5.70;99.90
26212;DHT22;13951;49.516;6.094;2023-04-03T07:29:00;5.70;99.90
26212;DHT22;13951;49.516;6.094;2023-04-03T07:31:33;5.70;99.90
26212;DHT22;13951;49.516;6.094;2023-04-03T07:34:07;5.70;99.90
26212;DHT22;13951;49.516;6.094;2023-04-03T07:36:41;5.80;99.90
26212;DHT22;13951;49.516;6.094;2023-04-03T07:39:14;5.80;99.90
26212;DHT22;13951;49.516;6.094;2023-04-03T07:41:47;5.80;99.90
26212;DHT22;13951;49.516;6.094;2023-04-03T07:44:20;5.90;99.90
26212;DHT22;13951;49.516;6.094;2023-04-03T07:46:53;6.00;99.90
26212;DHT22;13951;49.516;6.094;2023-04-03T07:49:25;6.00;99.90
26212;DHT22;13951;49.516;6.094;2023-04-03T07:51:58;6.20;99.90
26212;DHT22;13951;49.516;6.094;2023-04-03T07:54:31;6.30;99.90
26212;DHT22;13951;49.516;6.094;2023-04-03T07:57:04;6.30;99.90
26212;DHT22;13951;49.516;6.094;2023-04-03T07:59:37;6.30;99.90
26212;DHT22;13951;49.516;6.094;2023-04-03T08:02:12;6.30;99.90
26212;DHT22;13951;49.516;6.094;2023-04-03T08:04:45;6.40;99.90
26212;DHT22;13951;49.516;6.094;2023-04-03T08:07:18;6.50;99.90
26212;DHT22;13951;49.516;6.094;2023-04-03T08:09:51;6.60;99.90
26212;DHT22;13951;49.516;6.094;2023-04-03T08:12:24;6.60;99.90
26212;DHT22;13951;49.516;6.094;2023-04-03T08:14:57;6.60;99.90
26212;DHT22;13951;49.516;6.094;2023-04-03T08:17:29;6.70;99.90
26212;DHT22;13951;49.516;6.094;2023-04-03T08:20:05;6.80;99.90
26212;DHT22;13951;49.516;6.094;2023-04-03T08:22:39;6.80;99.90
26212;DHT22;13951;49.516;6.094;2023-04-03T08:25:12;7.00;99.90
26212;DHT22;13951;49.516;6.094;2023-04-03T08:27:45;7.10;99.90
26212;DHT22;13951;49.516;6.094;2023-04-03T08:30:17;7.10;99.90
26212;DHT22;13951;49.516;6.094;2023-04-03T08:32:50;7.10;99.90
26212;DHT22;13951;49.516;6.094;2023-04-03T08:35:23;7.00;99.90
26212;DHT22;13951;49.516;6.094;2023-04-03T08:37:56;6.70;99.90
26212;DHT22;13951;49.516;6.094;2023-04-03T08:40:29;6.60;99.90
26212;DHT22;13951;49.516;6.094;2023-04-03T08:46:06;6.60;99.90
26212;DHT22;13951;49.516;6.094;2023-04-03T08:48:44;6.60;99.90
26212;DHT22;13951;49.516;6.094;2023-04-03T08:51:20;6.60;99.90
26212;DHT22;13951;49.516;6.094;2023-04-03T08:54:00;6.60;99.90
26212;DHT22;13951;49.516;6.094;2023-04-03T08:56:34;6.70;99.90
26212;DHT22;13951;49.516;6.094;2023-04-03T08:59:17;6.70;99.90
26212;DHT22;13951;49.516;6.094;2023-04-03T09:01:57;6.70;99.90
26212;DHT22;13951;49.516;6.094;2023-04-03T09:04:32;6.70;99.90
26212;DHT22;13951;49.516;6.094;2023-04-03T09:07:16;6.70;99.90
26212;DHT22;13951;49.516;6.094;2023-04-03T09:09:50;6.70;99.90
26212;DHT22;13951;49.516;6.094;2023-04-03T09:12:27;6.90;99.90
26212;DHT22;13951;49.516;6.094;2023-04-03T09:15:18;7.10;99.90
26212;DHT22;13951;49.516;6.094;2023-04-03T09:18:32;7.30;99.90
26212;DHT22;13951;49.516;6.094;2023-04-03T09:21:27;7.40;99.90
26212;DHT22;13951;49.516;6.094;2023-04-03T09:24:06;7.40;99.90
26212;DHT22;13951;49.516;6.094;2023-04-03T09:29:19;7.60;99.90
26212;DHT22;13951;49.516;6.094;2023-04-03T09:31:58;7.80;99.90
26212;DHT22;13951;49.516;6.094;2023-04-03T09:34:35;8.00;99.90
26212;DHT22;13951;49.516;6.094;2023-04-03T09:37:08;8.20;99.90
26212;DHT22;13951;49.516;6.094;2023-04-03T09:39:52;8.40;99.90
26212;DHT22;13951;49.516;6.094;2023-04-03T09:42:26;8.50;99.90
26212;DHT22;13951;49.516;6.094;2023-04-03T09:45:04;8.30;99.90
26212;DHT22;13951;49.516;6.094;2023-04-03T09:47:37;8.20;99.90
26212;DHT22;13951;49.516;6.094;2023-04-03T09:52:51;7.90;99.90
26212;DHT22;13951;49.516;6.094;2023-04-03T09:55:26;8.10;99.90
26212;DHT22;13951;49.516;6.094;2023-04-03T09:58:03;8.40;99.90
26212;DHT22;13951;49.516;6.094;2023-04-03T10:00:38;8.60;99.90
26212;DHT22;13951;49.516;6.094;2023-04-03T10:03:33;8.80;99.90
26212;DHT22;13951;49.516;6.094;2023-04-03T10:06:23;9.10;99.90
26212;DHT22;13951;49.516;6.094;2023-04-03T10:09:05;9.30;99.90
26212;DHT22;13951;49.516;6.094;2023-04-03T10:11:38;9.40;99.90
26212;DHT22;13951;49.516;6.094;2023-04-03T10:14:29;9.60;99.90
26212;DHT22;13951;49.516;6.094;2023-04-03T10:17:17;9.80;99.90
26212;DHT22;13951;49.516;6.094;2023-04-03T10:20:07;10.00;99.90
26212;DHT22;13951;49.516;6.094;2023-04-03T10:25:20;10.00;99.90
26212;DHT22;13951;49.516;6.094;2023-04-03T10:27:56;9.80;99.90
26212;DHT22;13951;49.516;6.094;2023-04-03T10:45:40;8.30;99.90
26212;DHT22;13951;49.516;6.094;2023-04-03T10:48:07;8.30;99.90
26212;DHT22;13951;49.516;6.094;2023-04-03T10:54:25;8.40;99.90
26212;DHT22;13951;49.516;6.094;2023-04-03T10:59:15;8.90;99.90
26212;DHT22;13951;49.516;6.094;2023-04-03T11:01:59;8.90;99.90
26212;DHT22;13951;49.516;6.094;2023-04-03T11:04:36;8.90;99.90
26212;DHT22;13951;49.516;6.094;2023-04-03T11:07:21;8.70;99.90
26212;DHT22;13951;49.516;6.094;2023-04-03T11:10:02;8.70;99.90
26212;DHT22;13951;49.516;6.094;2023-04-03T11:12:58;8.80;99.90
26212;DHT22;13951;49.516;6.094;2023-04-03T11:15:34;8.80;99.90
26212;DHT22;13951;49.516;6.094;2023-04-03T11:18:13;8.70;99.90
26212;DHT22;13951;49.516;6.094;2023-04-03T11:21:04;8.80;99.90
26212;DHT22;13951;49.516;6.094;2023-04-03T11:23:40;9.00;99.90
26212;DHT22;13951;49.516;6.094;2023-04-03T11:26:26;8.90;99.90
26212;DHT22;13951;49.516;6.094;2023-04-03T11:29:08;9.10;99.90
26212;DHT22;13951;49.516;6.094;2023-04-03T11:34:57;9.70;99.90
26212;DHT22;13951;49.516;6.094;2023-04-03T11:37:35;10.20;99.90
26212;DHT22;13951;49.516;6.094;2023-04-03T11:40:19;10.60;99.90
26212;DHT22;13951;49.516;6.094;2023-04-03T11:45:38;11.20;99.90
26212;DHT22;13951;49.516;6.094;2023-04-03T11:53:43;11.60;99.90
26212;DHT22;13951;49.516;6.094;2023-04-03T12:01:50;11.70;99.90
26212;DHT22;13951;49.516;6.094;2023-04-03T12:04:25;11.60;98.60
26212;DHT22;13951;49.516;6.094;2023-04-03T12:07:18;11.70;98.30
26212;DHT22;13951;49.516;6.094;2023-04-03T12:09:57;11.40;99.10
26212;DHT22;13951;49.516;6.094;2023-04-03T12:12:35;11.00;99.10
26212;DHT22;13951;49.516;6.094;2023-04-03T12:15:19;10.50;99.90
26212;DHT22;13951;49.516;6.094;2023-04-03T12:17:53;10.50;99.90
26212;DHT22;13951;49.516;6.094;2023-04-03T12:23:31;10.40;99.90
26212;DHT22;13951;49.516;6.094;2023-04-03T12:26:19;10.50;99.90
26212;DHT22;13951;49.516;6.094;2023-04-03T12:28:55;11.00;99.20
26212;DHT22;13951;49.516;6.094;2023-04-03T12:31:42;11.40;96.30
26212;DHT22;13951;49.516;6.094;2023-04-03T12:40:57;12.70;99.10
26212;DHT22;13951;49.516;6.094;2023-04-03T12:46:21;12.60;99.20
26212;DHT22;13951;49.516;6.094;2023-04-03T12:48:56;12.50;99.70
26212;DHT22;13951;49.516;6.094;2023-04-03T12:51:40;12.60;98.60
26212;DHT22;13951;49.516;6.094;2023-04-03T12:54:29;12.90;97.70
26212;DHT22;13951;49.516;6.094;2023-04-03T12:57:22;12.80;98.20
26212;DHT22;13951;49.516;6.094;2023-04-03T12:59:56;12.50;97.50
26212;DHT22;13951;49.516;6.094;2023-04-03T13:02:32;12.20;97.70
26212;DHT22;13951;49.516;6.094;2023-04-03T13:05:16;11.80;98.90
26212;DHT22;13951;49.516;6.094;2023-04-03T13:07:57;11.50;99.90
26212;DHT22;13951;49.516;6.094;2023-04-03T13:10:31;11.20;99.90
26212;DHT22;13951;49.516;6.094;2023-04-03T13:13:09;10.80;99.90
26212;DHT22;13951;49.516;6.094;2023-04-03T13:15:47;10.50;99.90
26212;DHT22;13951;49.516;6.094;2023-04-03T13:18:35;10.40;99.90
26212;DHT22;13951;49.516;6.094;2023-04-03T13:21:15;10.40;99.90
26212;DHT22;13951;49.516;6.094;2023-04-03T13:23:51;10.50;99.90
26212;DHT22;13951;49.516;6.094;2023-04-03T13:26:35;10.40;99.90
26212;DHT22;13951;49.516;6.094;2023-04-03T13:29:23;10.40;99.90
26212;DHT22;13951;49.516;6.094;2023-04-03T13:32:04;10.50;99.90
26212;DHT22;13951;49.516;6.094;2023-04-03T13:34:42;10.30;99.90
26212;DHT22;13951;49.516;6.094;2023-04-03T13:37:26;10.40;99.90
26212;DHT22;13951;49.516;6.094;2023-04-03T13:42:41;10.20;99.90
26212;DHT22;13951;49.516;6.094;2023-04-03T13:45:29;10.10;99.90
26212;DHT22;13951;49.516;6.094;2023-04-03T13:48:15;10.10;99.90
26212;DHT22;13951;49.516;6.094;2023-04-03T13:51:02;10.00;99.90
26212;DHT22;13951;49.516;6.094;2023-04-03T13:53:44;10.00;99.90
26212;DHT22;13951;49.516;6.094;2023-04-03T13:56:43;10.00;99.90
26212;DHT22;13951;49.516;6.094;2023-04-03T14:02:23;10.00;99.90
26212;DHT22;13951;49.516;6.094;2023-04-03T14:05:02;10.00;99.90
26212;DHT22;13951;49.516;6.094;2023-04-03T14:07:35;10.00;99.90
26212;DHT22;13951;49.516;6.094;2023-04-03T14:10:09;9.90;99.90
26212;DHT22;13951;49.516;6.094;2023-04-03T14:12:42;9.90;99.90
26212;DHT22;13951;49.516;6.094;2023-04-03T14:15:23;9.90;99.90
26212;DHT22;13951;49.516;6.094;2023-04-03T14:17:57;10.00;99.90
26212;DHT22;13951;49.516;6.094;2023-04-03T14:20:32;9.90;99.90
26212;DHT22;13951;49.516;6.094;2023-04-03T14:23:05;9.90;99.90
26212;DHT22;13951;49.516;6.094;2023-04-03T14:25:39;9.80;99.90
26212;DHT22;13951;49.516;6.094;2023-04-03T14:28:21;9.80;99.90
26212;DHT22;13951;49.516;6.094;2023-04-03T14:30:54;9.70;99.90
26212;DHT22;13951;49.516;6.094;2023-04-03T14:33:27;9.60;99.90
26212;DHT22;13951;49.516;6.094;2023-04-03T14:36:18;9.50;99.90
26212;DHT22;13951;49.516;6.094;2023-04-03T14:38:53;9.60;99.90
26212;DHT22;13951;49.516;6.094;2023-04-03T14:41:27;9.60;99.90
26212;DHT22;13951;49.516;6.094;2023-04-03T14:44:00;9.70;99.90
26212;DHT22;13951;49.516;6.094;2023-04-03T14:46:36;9.70;99.90
26212;DHT22;13951;49.516;6.094;2023-04-03T14:49:27;9.70;99.90
26212;DHT22;13951;49.516;6.094;2023-04-03T14:52:01;9.70;99.90
26212;DHT22;13951;49.516;6.094;2023-04-03T14:54:34;9.70;99.90
26212;DHT22;13951;49.516;6.094;2023-04-03T14:57:09;9.60;99.90
26212;DHT22;13951;49.516;6.094;2023-04-03T14:59:45;9.60;99.90
26212;DHT22;13951;49.516;6.094;2023-04-03T15:02:28;9.50;99.90
26212;DHT22;13951;49.516;6.094;2023-04-03T15:05:04;9.40;99.90
26212;DHT22;13951;49.516;6.094;2023-04-03T15:07:50;9.30;99.90
26212;DHT22;13951;49.516;6.094;2023-04-03T15:10:26;9.30;99.90
26212;DHT22;13951;49.516;6.094;2023-04-03T15:12:59;9.30;99.90
26212;DHT22;13951;49.516;6.094;2023-04-03T15:15:38;9.30;99.90
26212;DHT22;13951;49.516;6.094;2023-04-03T15:18:23;9.40;99.90
26212;DHT22;13951;49.516;6.094;2023-04-03T15:21:00;9.30;99.90
26212;DHT22;13951;49.516;6.094;2023-04-03T15:23:33;9.20;99.90
26212;DHT22;13951;49.516;6.094;2023-04-03T15:26:06;9.20;99.90
26212;DHT22;13951;49.516;6.094;2023-04-03T15:28:40;9.30;99.90
26212;DHT22;13951;49.516;6.094;2023-04-03T15:31:14;9.30;99.90
26212;DHT22;13951;49.516;6.094;2023-04-03T15:33:46;9.30;99.90
26212;DHT22;13951;49.516;6.094;2023-04-03T15:36:19;9.30;99.90
26212;DHT22;13951;49.516;6.094;2023-04-03T15:39:06;9.30;99.90
26212;DHT22;13951;49.516;6.094;2023-04-03T15:41:38;9.30;99.90
26212;DHT22;13951;49.516;6.094;2023-04-03T15:44:11;9.40;99.90
26212;DHT22;13951;49.516;6.094;2023-04-03T15:46:46;9.40;99.90
26212;DHT22;13951;49.516;6.094;2023-04-03T15:49:20;9.30;99.90
26212;DHT22;13951;49.516;6.094;2023-04-03T15:51:53;9.20;99.90
26212;DHT22;13951;49.516;6.094;2023-04-03T15:54:26;9.20;99.90
26212;DHT22;13951;49.516;6.094;2023-04-03T15:56:59;9.30;99.90
26212;DHT22;13951;49.516;6.094;2023-04-03T15:59:32;9.20;99.90
26212;DHT22;13951;49.516;6.094;2023-04-03T16:02:06;9.20;99.90
26212;DHT22;13951;49.516;6.094;2023-04-03T16:04:40;9.30;99.90
26212;DHT22;13951;49.516;6.094;2023-04-03T16:07:13;9.30;99.90
26212;DHT22;13951;49.516;6.094;2023-04-03T16:09:46;9.20;99.90
26212;DHT22;13951;49.516;6.094;2023-04-03T16:12:18;9.20;99.90
26212;DHT22;13951;49.516;6.094;2023-04-03T16:14:51;9.20;99.90
26212;DHT22;13951;49.516;6.094;2023-04-03T16:17:25;9.30;99.90
26212;DHT22;13951;49.516;6.094;2023-04-03T16:19:58;9.30;99.90
26212;DHT22;13951;49.516;6.094;2023-04-03T16:22:32;9.10;99.90
26212;DHT22;13951;49.516;6.094;2023-04-03T16:25:06;9.00;99.90
26212;DHT22;13951;49.516;6.094;2023-04-03T16:27:40;8.90;99.90
26212;DHT22;13951;49.516;6.094;2023-04-03T16:30:13;8.90;99.90
26212;DHT22;13951;49.516;6.094;2023-04-03T16:32:46;8.90;99.90
26212;DHT22;13951;49.516;6.094;2023-04-03T16:35:19;8.80;99.90
26212;DHT22;13951;49.516;6.094;2023-04-03T16:37:52;8.80;99.90
26212;DHT22;13951;49.516;6.094;2023-04-03T16:40:24;8.80;99.90
26212;DHT22;13951;49.516;6.094;2023-04-03T16:42:57;8.80;99.90
26212;DHT22;13951;49.516;6.094;2023-04-03T16:45:30;8.80;99.90
26212;DHT22;13951;49.516;6.094;2023-04-03T16:48:03;8.70;99.90
26212;DHT22;13951;49.516;6.094;2023-04-03T16:50:36;8.70;99.90
26212;DHT22;13951;49.516;6.094;2023-04-03T16:53:09;8.70;99.90
26212;DHT22;13951;49.516;6.094;2023-04-03T16:55:42;8.70;99.90
26212;DHT22;13951;49.516;6.094;2023-04-03T16:58:14;8.60;99.90
26212;DHT22;13951;49.516;6.094;2023-04-03T17:00:47;8.60;99.90
26212;DHT22;13951;49.516;6.094;2023-04-03T17:03:21;8.70;99.90
26212;DHT22;13951;49.516;6.094;2023-04-03T17:05:56;8.70;99.90
26212;DHT22;13951;49.516;6.094;2023-04-03T17:08:29;8.70;99.90
26212;DHT22;13951;49.516;6.094;2023-04-03T17:11:01;8.70;99.90
26212;DHT22;13951;49.516;6.094;2023-04-03T17:13:34;8.60;99.90
26212;DHT22;13951;49.516;6.094;2023-04-03T17:16:09;8.50;99.90
26212;DHT22;13951;49.516;6.094;2023-04-03T17:18:43;8.40;99.90
26212;DHT22;13951;49.516;6.094;2023-04-03T17:21:17;8.40;99.90
26212;DHT22;13951;49.516;6.094;2023-04-03T17:23:54;8.50;99.90
26212;DHT22;13951;49.516;6.094;2023-04-03T17:26:29;8.40;99.90
26212;DHT22;13951;49.516;6.094;2023-04-03T17:29:03;8.30;99.90
26212;DHT22;13951;49.516;6.094;2023-04-03T17:31:36;8.20;99.90
26212;DHT22;13951;49.516;6.094;2023-04-03T17:34:09;8.10;99.90
26212;DHT22;13951;49.516;6.094;2023-04-03T17:36:43;7.90;99.90
26212;DHT22;13951;49.516;6.094;2023-04-03T17:39:16;7.90;99.90
26212;DHT22;13951;49.516;6.094;2023-04-03T17:41:49;7.80;99.90
26212;DHT22;13951;49.516;6.094;2023-04-03T17:44:22;7.80;99.90
26212;DHT22;13951;49.516;6.094;2023-04-03T17:46:54;7.70;99.90
26212;DHT22;13951;49.516;6.094;2023-04-03T17:49:27;7.70;99.90
26212;DHT22;13951;49.516;6.094;2023-04-03T17:52:00;7.70;99.90
26212;DHT22;13951;49.516;6.094;2023-04-03T17:54:32;7.70;99.90